Details for EasyJet at LPPR




Go Back


Latest METAR
Local Time

LPPR 221730Z 31007KT 270V350 9999 FEW015 17/13 Q1015

22/05/2018, 18:57:41

Description
Results
EasyJet Logo
Number of Pilots based at LPPR
1 Pilots Based here
Number of EasyJet Flights Departed from LPPR
2 Flights Departed
Number of EasyJet Flights Arrived at LPPR
0 Flights Arrived
Number of EasyJet Schedules Departing from LPPR
86 Schedules
Number of EasyJet Schedules Arriving at LPPR
89 Schedules
Number of EasyJet Schedules Departing from LPPR availible today
27 Schedules Today
Number of EasyJet Schedules Arriving at LPPR availible today
27 Schedules Today
Average Landing Rate at LPPR
-192 fpm
EasyJet Average Landing Rate at LPPR
0 fpm
Total Fuel Purchased at LPPR by EasyJet
10,775.54 kgs / 23,755.76 lbs

Pilots Based at LPPR


Pilot ID
Pilot Name
Pilot Rank
No. of Flights
No. of Flying Hours
Fernando Só Silva
176
368.04
Content